Hovedside
METAR-TAF:

METAR-TAF

Lufthavner :

Kajana lufthavn

Kajana, Finland

breddegrad: 64-17N, lengdegrad: 027-41E, høyde over havet: 143 m

Gjeldene værobservasjon

Denne rapporten ble laget for 29 minutter siden, klokken 19:50 UTC
Vind 2 kt fra Nord
Temperatur 2°C
Luftfuktighet 100%
Trykk 1002 hPa
Sikt: 1500 m
Overskyet i en høyde av 400 ft
regn, dis

METAR: EFKI 141950Z 36002KT 1500 RA BR OVC004 02/02 Q1002

Tid: 22:19 (20:19 UTC)

Varsel

Denne rapporten ble laget for 34 minutter siden, klokken 19:45 UTC
Varsel gyldig fra 14. klokken 19 UTC til 14. klokken 22 UTC
Vind 2 kt fra skiftende retning
Sikt: 1400 m
Overskyet i en høyde av 400 ft
lett regn
Blir
fra 14. klokken 19 UTC til 14. klokken 20 UTC
Vind 4 kt fra Vest-nordvest
Sikt: 3000 m
lett snø, regn

TAF: EFKI 141945Z 1419/1422 VRB02KT 1400 -RA OVC004 BECMG 1419/1420 30004KT 3000 -SNRA

Værobservasjoner og værvarsel for over 4000 flyplasser (METAR- og TAF-rapporter).

Tilgjengelige stasjoner er representert av de røde og gule prikkene på kartet.

Hold musepekeren over prikken for å se navnet på stasjonen.

Klikk så for å se værobservasjoner og -varsler.

For å forandre kartet kan du klikke på den grønne knappen med svart kryss for å zoome inn, på den grønne knappen med strek for å zoome ut, eller på de grønne pilene for å se tilstøtende kart.


METAR-TAF: